WetterOnline ( https://www.wetteronline.ch )

Wetter aktuell Rheinsberg

Aktuelles Wetter: Neuruppin - Alt Ruppin (50m)

6-stündlich | Neueste Meldungen
Ortszeit Temperatur Wetter
Do, 01.10. 2:00 8.8° C wolkig
Mi, 30.09. 20:00 12.3° C leicht bewölkt
Mi, 30.09. 14:00 18.5° C wolkenlos
Mi, 30.09. 8:00 6.0° C wolkenlos
Mi, 30.09. 2:00 8.1° C wolkenlos
Di, 29.09. 20:00 11.9° C wolkig
Di, 29.09. 14:00 16.7° C leicht bewölkt
Di, 29.09. 8:00 9.7° C bedeckt
Ortszeit Temperatur Wetter
Do, 01.10. 5:30 9.0° C leicht bewölkt
Do, 01.10. 5:20 9.0° C leicht bewölkt
Do, 01.10. 5:10 9.3° C leicht bewölkt
Do, 01.10. 5:00 9.4° C leicht bewölkt
Do, 01.10. 4:50 9.4° C leicht bewölkt
Do, 01.10. 4:40 9.5° C leicht bewölkt
Do, 01.10. 4:30 9.7° C wolkig
Do, 01.10. 4:00 9.7° C fast wolkenlos
Do, 01.10. 3:30 9.4° C fast wolkenlos
Do, 01.10. 3:00 9.1° C wolkig
Do, 01.10. 2:30 8.5° C wolkig
Do, 01.10. 2:00 8.8° C wolkig
Ortszeit Relative Feuchte Sichtweite
Do, 01.10. 2:00 99% 11 km
Mi, 30.09. 20:00 89% 27 km
Mi, 30.09. 14:00 60% 55 km
Mi, 30.09. 8:00 97% 20 km
Mi, 30.09. 2:00 99% 15 km
Di, 29.09. 20:00 91% 22 km
Di, 29.09. 14:00 56% 65 km
Di, 29.09. 8:00 96% 35 km
Ortszeit Relative Feuchte Sichtweite
Do, 01.10. 5:30 99% 3.6 km
Do, 01.10. 5:20 99% -
Do, 01.10. 5:10 99% -
Do, 01.10. 5:00 99% 2.8 km
Do, 01.10. 4:50 99% -
Do, 01.10. 4:40 99% -
Do, 01.10. 4:30 99% 3.8 km
Do, 01.10. 4:00 99% 4.0 km
Do, 01.10. 3:30 99% 4.8 km
Do, 01.10. 3:00 99% 5.0 km
Do, 01.10. 2:30 98% 13 km
Do, 01.10. 2:00 99% 11 km
Ortszeit Niederschlagsmenge Niederschlagsart
Do, 01.10. 2:00 0.0 l/m2 in 6 Std. -
Mi, 30.09. 20:00 0.0 l/m2 in 12 Std. -
Mi, 30.09. 14:00 0.0 l/m2 in 6 Std. -
Mi, 30.09. 8:00 0.0 l/m2 in 12 Std. -
Mi, 30.09. 2:00 0.0 l/m2 in 6 Std. -
Di, 29.09. 20:00 0.0 l/m2 in 12 Std. -
Di, 29.09. 14:00 0.0 l/m2 in 6 Std. -
Di, 29.09. 8:00 0.0 l/m2 in 12 Std. -
Ortszeit Niederschlagsmenge Niederschlagsart
Do, 01.10. 5:30 0.0 l/m2 in 1 Std. -
Do, 01.10. 5:20 keine Meldung -
Do, 01.10. 5:10 keine Meldung -
Do, 01.10. 5:00 0.0 l/m2 in 1 Std. -
Do, 01.10. 4:50 keine Meldung -
Do, 01.10. 4:40 keine Meldung -
Do, 01.10. 4:30 0.0 l/m2 in 1 Std. -
Do, 01.10. 4:00 0.0 l/m2 in 1 Std. -
Do, 01.10. 3:30 0.0 l/m2 in 1 Std. -
Do, 01.10. 3:00 0.0 l/m2 in 1 Std. -
Do, 01.10. 2:30 0.0 l/m2 in 1 Std. -
Do, 01.10. 2:00 0.0 l/m2 in 1 Std. -
Ortszeit Stärke Spitze Richtung
km/h Bft. km/h Grad Sektor
Do, 01.10. 2:00 4 1 7 40° NO
Mi, 30.09. 20:00 0 0 11 - -
Mi, 30.09. 14:00 4 1 11 290° W
Mi, 30.09. 8:00 0 0 7 - -
Mi, 30.09. 2:00 4 1 11 280° W
Di, 29.09. 20:00 2 1 11 60° NO
Di, 29.09. 14:00 4 1 7 130° SO
Di, 29.09. 8:00 0 0 7 - -
Ortszeit Stärke Spitze Richtung
km/h Bft. km/h Grad Sektor
Do, 01.10. 5:30 - - 11 - -
Do, 01.10. 5:20 - - - - -
Do, 01.10. 5:10 - - - - -
Do, 01.10. 5:00 4 1 11 60° NO
Do, 01.10. 4:50 4 1 - 60° NO
Do, 01.10. 4:40 4 1 - 60° NO
Do, 01.10. 4:30 6 1 9 60° NO
Do, 01.10. 4:00 4 1 7 60° NO
Do, 01.10. 3:30 4 1 7 60° NO
Do, 01.10. 3:00 4 1 7 70° O
Do, 01.10. 2:30 4 1 4 10° N
Do, 01.10. 2:00 4 1 7 40° NO
Ortszeit Untergrenze Bedeckung Gattung
total tief tief mittel hoch
Do, 01.10. 2:00 10500 m 8/8 0/8 - - -
Mi, 30.09. 20:00 10500 m 6/8 0/8 - - -
Mi, 30.09. 14:00 - 0/8 0/8 - - -
Mi, 30.09. 8:00 - 0/8 0/8 - - -
Mi, 30.09. 2:00 - 0/8 0/8 - - -
Di, 29.09. 20:00 2100 m 5/8 5/8 - - -
Di, 29.09. 14:00 2700 m 3/8 1/8 - - -
Di, 29.09. 8:00 1800 m 8/8 8/8 - - -
Ortszeit Bedeckungsgrad in Achtel und Wolkenuntergrenze
Do, 01.10. 5:30 5(10500m)
Do, 01.10. 5:20 5(10500m)
Do, 01.10. 5:10 5(10500m)
Do, 01.10. 5:00 5(10500m)
Do, 01.10. 4:50 5(10500m)
Do, 01.10. 4:40 6(10500m)
Do, 01.10. 4:30 7(10500m)
Do, 01.10. 4:00 2(10500m)
Do, 01.10. 3:30 1(10500m)
Do, 01.10. 3:00 7(10500m)
Do, 01.10. 2:30 5(10500m) 8(10500m)
Do, 01.10. 2:00 8(10500m)
Ortszeit Luftdruck NN (hPa) Tendenz (hPa in 3 Std.)
Do, 01.10. 2:00 1013 - 1,3
Mi, 30.09. 20:00 1015 - 0,3
Mi, 30.09. 14:00 1016 - 1,1
Mi, 30.09. 8:00 1017 + 0,2
Mi, 30.09. 2:00 1018 - 0,2
Di, 29.09. 20:00 1017 + 1,2
Di, 29.09. 14:00 1017 - 0,2
Di, 29.09. 8:00 1016 + 0,9
Ortszeit Luftdruck NN (hPa) Tendenz (hPa in 3 Std.)
Do, 01.10. 5:30 1011 - 1,9
Do, 01.10. 5:20 1011 keine Meldung
Do, 01.10. 5:10 1011 keine Meldung
Do, 01.10. 5:00 1011 - 2,2
Do, 01.10. 4:50 1011 keine Meldung
Do, 01.10. 4:40 1011 keine Meldung
Do, 01.10. 4:30 1011 - 2,1
Do, 01.10. 4:00 1012 - 2,0
Do, 01.10. 3:30 1012 - 1,9
Do, 01.10. 3:00 1012 - 1,8
Do, 01.10. 2:30 1013 - 1,4
Do, 01.10. 2:00 1013 - 1,3
Ortszeit Schneehöhe (cm)
Do, 01.10. 2:00 -
Mi, 30.09. 20:00 -
Mi, 30.09. 14:00 -
Mi, 30.09. 8:00 -
Mi, 30.09. 2:00 -
Di, 29.09. 20:00 -
Di, 29.09. 14:00 -
Di, 29.09. 8:00 -
Ortszeit Schneehöhe (cm)
Do, 01.10. 5:30 -
Do, 01.10. 5:20 -
Do, 01.10. 5:10 -
Do, 01.10. 5:00 -
Do, 01.10. 4:50 -
Do, 01.10. 4:40 -
Do, 01.10. 4:30 -
Do, 01.10. 4:00 -
Do, 01.10. 3:30 -
Do, 01.10. 3:00 -
Do, 01.10. 2:30 -
Do, 01.10. 2:00 -
Link zu dieser Seite / Seite empfehlen

Das Wetter in ...